createdAt,value
2022-12-27T00:00:14.228Z,12.05
2022-12-27T00:02:42.581Z,12.68
2022-12-27T00:05:11.716Z,11.48
2022-12-27T00:07:40.365Z,13.13
2022-12-27T00:10:11.437Z,12.32
2022-12-27T00:12:40.348Z,13.23
2022-12-27T00:15:10.267Z,13.18
2022-12-27T00:17:38.452Z,13.98
2022-12-27T00:20:11.578Z,13.55
2022-12-27T00:22:41.789Z,12.93
2022-12-27T00:25:10.792Z,14.32
2022-12-27T00:27:39.716Z,14.40
2022-12-27T00:30:09.082Z,13.48
2022-12-27T00:32:37.621Z,12.90
2022-12-27T00:35:07.369Z,14.15
2022-12-27T00:37:36.603Z,14.20
2022-12-27T00:40:06.505Z,13.45
2022-12-27T00:42:38.355Z,13.68
2022-12-27T00:47:36.938Z,13.75
2022-12-27T00:50:06.605Z,13.02
2022-12-27T00:52:36.315Z,13.48
2022-12-27T00:55:05.903Z,14.15
2022-12-27T00:57:34.475Z,13.73
2022-12-27T01:00:10.134Z,13.00
2022-12-27T01:02:39.194Z,12.43
2022-12-27T01:05:10.656Z,12.65
2022-12-27T01:07:39.099Z,12.82
2022-12-27T01:10:10.185Z,12.45
2022-12-27T01:12:39.175Z,12.20
2022-12-27T01:15:11.045Z,12.73
2022-12-27T01:17:39.998Z,13.07
2022-12-27T01:20:09.477Z,13.07
2022-12-27T01:22:38.205Z,14.48
2022-12-27T01:25:07.647Z,13.57
2022-12-27T01:27:36.153Z,13.68
2022-12-27T01:30:10.435Z,13.63
2022-12-27T01:32:39.549Z,13.27
2022-12-27T01:35:09.013Z,12.65
2022-12-27T01:37:37.724Z,13.02
2022-12-27T01:40:07.247Z,12.23
2022-12-27T01:42:54.229Z,12.77
2022-12-27T01:45:40.889Z,12.85
2022-12-27T01:48:22.637Z,11.35
2022-12-27T01:53:39.913Z,11.63
2022-12-27T01:56:30.534Z,11.88
2022-12-27T01:59:06.216Z,11.25
2022-12-27T02:01:44.924Z,12.25
2022-12-27T02:04:19.520Z,11.32
2022-12-27T02:06:48.695Z,12.43
2022-12-27T02:09:22.838Z,12.77
2022-12-27T02:11:57.339Z,12.43
2022-12-27T02:14:34.919Z,12.60
2022-12-27T02:17:12.707Z,12.68
2022-12-27T02:19:42.711Z,14.63
2022-12-27T02:23:11.384Z,12.45
2022-12-27T02:25:55.625Z,13.68
2022-12-27T02:28:49.987Z,11.75
2022-12-27T02:31:59.191Z,12.00
2022-12-27T02:34:38.556Z,12.88
2022-12-27T02:37:13.189Z,11.30
2022-12-27T02:39:48.726Z,11.57
2022-12-27T02:42:38.477Z,12.02
2022-12-27T02:45:38.981Z,12.65
2022-12-27T02:48:31.998Z,13.18
2022-12-27T02:51:36.788Z,12.40
2022-12-27T02:54:30.507Z,12.82
2022-12-27T02:57:33.777Z,12.93
2022-12-27T03:04:43.278Z,12.90
2022-12-27T03:07:39.769Z,14.65
2022-12-27T03:10:54.584Z,15.13
2022-12-27T03:14:24.608Z,16.02
2022-12-27T03:17:08.799Z,13.82
2022-12-27T03:20:06.194Z,14.57
2022-12-27T03:22:58.239Z,14.45
2022-12-27T03:25:28.932Z,13.02
2022-12-27T03:28:34.596Z,14.35
2022-12-27T03:31:42.580Z,15.48
2022-12-27T03:34:32.582Z,15.00
2022-12-27T03:37:26.171Z,15.77
2022-12-27T03:40:23.087Z,15.27
2022-12-27T03:43:14.465Z,14.52
2022-12-27T03:46:34.258Z,15.40
2022-12-27T03:49:39.608Z,16.48
2022-12-27T03:52:26.394Z,15.88
2022-12-27T03:54:56.149Z,17.27
2022-12-27T03:57:31.833Z,16.52
2022-12-27T04:00:00.803Z,16.20
2022-12-27T04:02:30.035Z,16.20
2022-12-27T04:04:59.336Z,14.77
2022-12-27T04:07:28.812Z,17.45
2022-12-27T04:10:16.066Z,15.82
2022-12-27T04:13:03.667Z,15.25
2022-12-27T04:15:52.181Z,14.07
2022-12-27T04:18:39.568Z,16.70
2022-12-27T04:21:26.857Z,15.80
2022-12-27T04:24:14.988Z,15.20
2022-12-27T04:27:02.197Z,15.32
2022-12-27T04:29:49.161Z,11.75
2022-12-27T04:32:36.555Z,10.35
2022-12-27T04:35:06.221Z,9.23
2022-12-27T04:37:34.565Z,8.50
2022-12-27T04:40:21.615Z,7.78
2022-12-27T04:43:10.292Z,6.65
2022-12-27T04:45:57.089Z,7.05
2022-12-27T04:48:46.720Z,7.50
2022-12-27T04:51:34.470Z,6.95
2022-12-27T04:54:21.753Z,6.95
2022-12-27T04:56:50.972Z,7.07
2022-12-27T04:59:38.707Z,7.47
2022-12-27T05:02:07.908Z,6.53
2022-12-27T05:04:38.958Z,6.85
2022-12-27T05:07:49.281Z,7.25
2022-12-27T05:10:36.591Z,7.63
2022-12-27T05:13:23.875Z,7.50
2022-12-27T05:15:52.421Z,6.72
2022-12-27T05:18:20.745Z,8.30
2022-12-27T05:20:49.576Z,7.13
2022-12-27T05:23:37.374Z,7.10
2022-12-27T05:26:06.418Z,6.53
2022-12-27T05:28:34.950Z,7.18
2022-12-27T05:31:03.916Z,6.55
2022-12-27T05:33:32.870Z,6.93
2022-12-27T05:36:01.523Z,6.80
2022-12-27T05:38:30.189Z,7.22
2022-12-27T05:41:00.841Z,5.57
2022-12-27T05:43:30.555Z,7.37
2022-12-27T05:46:13.000Z,5.95
2022-12-27T05:48:42.363Z,6.65
2022-12-27T05:51:19.709Z,7.32
2022-12-27T05:53:50.060Z,6.05
2022-12-27T05:56:21.256Z,7.25
2022-12-27T05:58:53.852Z,5.75
2022-12-27T06:01:23.292Z,7.57
2022-12-27T06:03:52.180Z,5.50
2022-12-27T06:06:21.063Z,7.30
2022-12-27T06:08:49.845Z,5.90
2022-12-27T06:11:19.739Z,6.13
2022-12-27T06:13:54.425Z,6.07
2022-12-27T06:16:23.387Z,5.60
2022-12-27T06:18:51.568Z,4.47
2022-12-27T06:21:21.894Z,5.75
2022-12-27T06:23:50.893Z,5.13
2022-12-27T06:26:24.820Z,5.57
2022-12-27T06:28:55.154Z,4.57
2022-12-27T06:31:24.503Z,6.05
2022-12-27T06:33:53.376Z,5.85
2022-12-27T06:36:26.552Z,6.35
2022-12-27T06:38:55.133Z,5.00
2022-12-27T06:41:24.348Z,5.43
2022-12-27T06:43:58.790Z,4.25
2022-12-27T06:46:27.546Z,5.78
2022-12-27T06:48:56.020Z,4.63
2022-12-27T06:51:24.298Z,4.88
2022-12-27T06:53:52.579Z,3.83
2022-12-27T06:56:23.843Z,4.95
2022-12-27T06:58:52.803Z,4.15
2022-12-27T07:01:28.037Z,5.45
2022-12-27T07:03:59.907Z,3.47
2022-12-27T07:06:31.042Z,4.78
2022-12-27T07:09:01.790Z,3.45
2022-12-27T07:11:32.705Z,3.30
2022-12-27T07:14:01.117Z,3.65
2022-12-27T07:16:31.212Z,4.72
2022-12-27T07:19:00.461Z,3.28
2022-12-27T07:21:30.419Z,7.55
2022-12-27T07:23:59.031Z,4.32
2022-12-27T07:26:30.387Z,5.38
2022-12-27T07:29:01.648Z,3.47
2022-12-27T07:31:32.968Z,3.78
2022-12-27T07:34:04.379Z,4.03
2022-12-27T07:36:38.393Z,5.00
2022-12-27T07:39:08.000Z,4.70
2022-12-27T07:41:37.952Z,4.20
2022-12-27T07:44:07.548Z,5.05
2022-12-27T07:46:37.590Z,4.50
2022-12-27T07:49:06.118Z,3.97
2022-12-27T07:51:34.532Z,5.80
2022-12-27T07:54:05.912Z,4.85
2022-12-27T07:56:34.647Z,4.10
2022-12-27T07:59:03.360Z,4.70
2022-12-27T08:01:55.190Z,4.65
2022-12-27T08:04:24.325Z,7.18
2022-12-27T08:06:52.783Z,6.82
2022-12-27T08:09:30.532Z,8.43
2022-12-27T08:11:58.751Z,8.80
2022-12-27T08:14:26.998Z,8.82
2022-12-27T08:17:02.675Z,4.13
2022-12-27T08:19:31.033Z,4.40
2022-12-27T08:21:59.354Z,7.05
2022-12-27T08:24:28.250Z,7.75
2022-12-27T08:26:57.164Z,6.70
2022-12-27T08:29:27.172Z,6.50
2022-12-27T08:31:55.797Z,5.13
2022-12-27T08:34:24.269Z,7.40
2022-12-27T08:36:55.854Z,9.27
2022-12-27T08:39:24.997Z,6.97
2022-12-27T08:41:54.416Z,6.05
2022-12-27T08:44:23.898Z,9.23
2022-12-27T08:46:52.435Z,6.95
2022-12-27T08:49:21.023Z,7.43
2022-12-27T08:51:49.890Z,6.45
2022-12-27T08:54:18.353Z,9.10
2022-12-27T08:56:47.042Z,5.15
2022-12-27T08:59:15.428Z,7.18
2022-12-27T09:01:45.323Z,4.70
2022-12-27T09:04:14.291Z,7.20
2022-12-27T09:06:42.768Z,5.32
2022-12-27T09:09:11.298Z,4.97
2022-12-27T09:11:40.526Z,4.43
2022-12-27T09:14:12.781Z,5.60
2022-12-27T09:16:41.963Z,4.65
2022-12-27T09:19:11.427Z,4.93
2022-12-27T09:21:42.287Z,4.47
2022-12-27T09:24:15.383Z,3.65
2022-12-27T09:26:44.442Z,4.88
2022-12-27T09:29:13.410Z,5.05
2022-12-27T09:31:41.953Z,5.10
2022-12-27T09:34:12.061Z,5.18
2022-12-27T09:36:41.525Z,4.25
2022-12-27T09:39:13.127Z,4.15
2022-12-27T09:45:20.718Z,4.50
2022-12-27T09:48:33.420Z,4.80
2022-12-27T09:51:21.757Z,3.83
2022-12-27T09:54:11.617Z,4.57
2022-12-27T09:57:17.743Z,3.97
2022-12-27T09:59:44.530Z,4.85
2022-12-27T10:02:39.531Z,4.13
2022-12-27T10:05:22.372Z,3.75
2022-12-27T10:08:10.235Z,3.55
2022-12-27T10:10:58.202Z,5.28
2022-12-27T10:13:42.062Z,5.28
2022-12-27T10:16:34.651Z,3.53
2022-12-27T10:19:23.019Z,3.78
2022-12-27T10:22:33.907Z,4.43
2022-12-27T10:25:12.117Z,4.82
2022-12-27T10:27:42.047Z,4.28
2022-12-27T10:30:20.680Z,5.38
2022-12-27T10:32:50.038Z,4.15
2022-12-27T10:35:21.632Z,5.20
2022-12-27T10:37:50.980Z,5.18
2022-12-27T10:40:29.810Z,6.13
2022-12-27T10:43:09.032Z,6.22
2022-12-27T10:45:43.163Z,5.60
2022-12-27T10:48:28.912Z,4.80
2022-12-27T10:51:09.762Z,6.00
2022-12-27T10:54:10.449Z,5.20
2022-12-27T10:56:42.275Z,9.70
2022-12-27T10:59:19.088Z,4.78
2022-12-27T11:02:19.106Z,3.33
2022-12-27T11:05:01.733Z,4.93
2022-12-27T11:07:35.612Z,7.28
2022-12-27T11:10:21.777Z,7.05
2022-12-27T11:13:02.171Z,7.25
2022-12-27T11:15:42.484Z,5.78
2022-12-27T11:18:20.291Z,5.68
2022-12-27T11:20:58.873Z,5.18
2022-12-27T11:23:42.743Z,6.60
2022-12-27T11:26:24.942Z,5.70
2022-12-27T11:29:03.520Z,5.40
2022-12-27T11:31:44.875Z,6.50
2022-12-27T11:34:26.805Z,7.30
2022-12-27T11:39:45.804Z,7.47
2022-12-27T11:42:47.767Z,7.72
2022-12-27T11:45:26.638Z,6.63
2022-12-27T11:48:31.689Z,5.75
2022-12-27T11:51:24.598Z,6.57
2022-12-27T11:54:30.324Z,5.88
2022-12-27T11:57:38.742Z,6.28
2022-12-27T12:00:25.337Z,6.30
2022-12-27T12:03:54.115Z,5.05
2022-12-27T12:06:52.481Z,6.10
2022-12-27T12:09:30.262Z,5.43
2022-12-27T12:12:46.387Z,4.00
2022-12-27T12:15:32.133Z,5.03
2022-12-27T12:18:51.101Z,5.00
2022-12-27T12:21:37.860Z,5.40
2022-12-27T12:24:50.962Z,4.93
2022-12-27T12:27:31.656Z,5.18
2022-12-27T12:30:37.756Z,4.82
2022-12-27T12:33:16.160Z,4.75
2022-12-27T12:36:22.658Z,4.65
2022-12-27T12:39:39.073Z,5.18
2022-12-27T12:42:41.458Z,5.15
2022-12-27T12:45:31.508Z,4.72
2022-12-27T12:48:51.556Z,4.93
2022-12-27T12:52:01.052Z,4.07
2022-12-27T12:54:54.802Z,3.85
2022-12-27T12:57:35.206Z,5.03
2022-12-27T13:00:49.116Z,3.85
2022-12-27T13:03:48.555Z,4.57
2022-12-27T13:06:56.595Z,4.82
2022-12-27T13:10:21.769Z,4.53
2022-12-27T13:13:10.527Z,4.75
2022-12-27T13:16:05.096Z,4.95
2022-12-27T13:19:14.699Z,4.05
2022-12-27T13:22:16.385Z,4.22
2022-12-27T13:25:07.587Z,4.50
2022-12-27T13:28:02.194Z,4.67
2022-12-27T13:30:55.250Z,4.38
2022-12-27T13:34:12.377Z,5.90
2022-12-27T13:37:14.597Z,3.97
2022-12-27T13:40:26.128Z,5.30
2022-12-27T13:43:43.534Z,5.78
2022-12-27T13:46:47.191Z,5.10
2022-12-27T13:49:34.537Z,6.43
2022-12-27T13:52:57.581Z,6.50
2022-12-27T13:55:52.719Z,6.90
2022-12-27T13:59:27.810Z,8.10
2022-12-27T14:02:19.684Z,5.78
2022-12-27T14:07:56.554Z,5.65
2022-12-27T14:10:50.152Z,7.05
2022-12-27T14:13:43.928Z,6.05
2022-12-27T14:16:57.549Z,5.32
2022-12-27T14:20:24.312Z,6.82
2022-12-27T14:22:58.425Z,5.85
2022-12-27T14:26:03.814Z,6.60
2022-12-27T14:29:12.387Z,6.05
2022-12-27T14:32:00.423Z,5.55
2022-12-27T14:35:27.142Z,6.43
2022-12-27T14:38:45.358Z,6.57
2022-12-27T14:41:59.907Z,5.95
2022-12-27T14:44:55.695Z,8.43
2022-12-27T14:48:25.621Z,6.70
2022-12-27T14:51:50.455Z,5.80
2022-12-27T14:54:19.184Z,5.82
2022-12-27T15:45:50.998Z,6.40
2022-12-27T15:48:58.794Z,7.97
2022-12-27T15:51:52.773Z,8.07
2022-12-27T15:54:50.382Z,8.65
2022-12-27T15:57:37.492Z,8.15
2022-12-27T16:00:18.393Z,6.72
2022-12-27T16:02:51.916Z,5.55
2022-12-27T16:05:22.923Z,6.30
2022-12-27T16:07:59.969Z,4.80
2022-12-27T16:10:34.499Z,6.68
2022-12-27T16:13:11.215Z,6.40
2022-12-27T16:15:50.368Z,6.47
2022-12-27T16:18:24.730Z,7.40
2022-12-27T16:21:18.637Z,4.93
2022-12-27T16:23:46.844Z,6.22
2022-12-27T16:26:27.516Z,6.93
2022-12-27T16:29:17.515Z,5.28
2022-12-27T16:31:50.623Z,6.05
2022-12-27T16:34:31.985Z,6.35
2022-12-27T16:37:01.297Z,5.55
2022-12-27T16:40:01.754Z,7.60
2022-12-27T16:43:11.144Z,8.45
2022-12-27T16:45:59.514Z,13.13
2022-12-27T16:48:49.153Z,12.50
2022-12-27T16:51:51.751Z,12.27
2022-12-27T16:54:57.419Z,9.80
2022-12-27T16:57:25.595Z,8.95
2022-12-27T17:00:13.724Z,7.18
2022-12-27T17:02:46.667Z,6.95
2022-12-27T17:05:41.910Z,7.72
2022-12-27T17:08:24.742Z,6.43
2022-12-27T17:10:52.725Z,6.03
2022-12-27T17:13:55.410Z,7.22
2022-12-27T17:16:29.738Z,7.22
2022-12-27T17:19:04.735Z,5.95
2022-12-27T17:21:41.337Z,7.10
2022-12-27T17:24:21.280Z,7.40
2022-12-27T17:27:30.137Z,7.13
2022-12-27T17:30:05.622Z,7.65
2022-12-27T17:33:04.317Z,7.82
2022-12-27T17:36:22.091Z,7.97
2022-12-27T17:38:55.447Z,6.72
2022-12-27T17:41:57.759Z,6.80
2022-12-27T17:44:47.485Z,7.50
2022-12-27T17:47:37.423Z,6.35
2022-12-27T17:50:14.081Z,5.95
2022-12-27T17:53:01.118Z,5.20
2022-12-27T17:56:07.656Z,8.85
2022-12-27T17:58:36.299Z,6.63
2022-12-27T18:01:04.808Z,6.30
2022-12-27T18:03:45.108Z,7.72
2022-12-27T18:06:22.571Z,7.45
2022-12-27T18:08:57.711Z,5.63
2022-12-27T18:11:29.292Z,6.85
2022-12-27T18:14:00.878Z,5.45
2022-12-27T18:16:39.335Z,6.68
2022-12-27T18:19:07.955Z,6.10
2022-12-27T18:21:39.100Z,6.65
2022-12-27T18:24:40.116Z,5.60
2022-12-27T18:27:20.375Z,6.60
2022-12-27T18:29:49.989Z,5.97
2022-12-27T18:32:19.820Z,7.70
2022-12-27T18:35:00.841Z,5.93
2022-12-27T18:37:31.261Z,6.53
2022-12-27T18:40:05.004Z,4.97
2022-12-27T18:42:40.139Z,6.55
2022-12-27T18:45:34.927Z,6.68
2022-12-27T18:48:12.192Z,6.35
2022-12-27T18:50:53.340Z,7.32
2022-12-27T18:53:32.550Z,7.60
2022-12-27T18:56:06.131Z,5.50
2022-12-27T18:58:35.847Z,7.00
2022-12-27T19:01:20.261Z,6.65
2022-12-27T19:04:20.326Z,6.47
2022-12-27T19:07:15.054Z,6.90
2022-12-27T19:09:53.634Z,7.22
2022-12-27T19:12:25.489Z,7.40
2022-12-27T19:14:55.186Z,8.30
2022-12-27T19:17:32.502Z,7.07
2022-12-27T19:20:04.792Z,6.40
2022-12-27T19:22:47.887Z,7.10
2022-12-27T19:25:24.483Z,8.70
2022-12-27T19:28:11.180Z,7.53
2022-12-27T19:30:51.563Z,8.07
2022-12-27T19:33:32.916Z,8.50
2022-12-27T19:36:07.490Z,6.88
2022-12-27T19:38:36.722Z,6.85
2022-12-27T19:41:06.597Z,6.43
2022-12-27T19:43:46.929Z,7.82
2022-12-27T19:46:16.178Z,7.93
2022-12-27T19:49:01.066Z,5.70
2022-12-27T19:51:37.815Z,7.03
2022-12-27T19:54:20.937Z,6.63
2022-12-27T19:56:50.543Z,6.65
2022-12-27T19:59:25.256Z,6.68
2022-12-27T20:01:54.649Z,5.35
2022-12-27T20:04:24.133Z,7.47
2022-12-27T20:06:54.772Z,6.68
2022-12-27T20:09:23.626Z,7.70
2022-12-27T20:11:52.410Z,6.63
2022-12-27T20:14:20.984Z,8.98
2022-12-27T20:16:49.564Z,6.68
2022-12-27T20:19:18.432Z,7.32
2022-12-27T20:21:47.467Z,7.43
2022-12-27T20:24:16.155Z,7.05
2022-12-27T20:26:44.959Z,5.70
2022-12-27T20:29:15.764Z,7.93
2022-12-27T20:31:48.966Z,8.38
2022-12-27T20:34:21.042Z,9.02
2022-12-27T20:36:49.992Z,5.50
2022-12-27T20:39:18.625Z,7.45
2022-12-27T20:41:47.445Z,6.22
2022-12-27T20:44:19.222Z,6.78
2022-12-27T20:46:48.248Z,6.13
2022-12-27T20:49:18.257Z,6.72
2022-12-27T20:51:46.743Z,6.70
2022-12-27T20:54:17.161Z,6.97
2022-12-27T20:56:45.552Z,5.70
2022-12-27T20:59:17.393Z,6.55
2022-12-27T21:01:49.287Z,6.25
2022-12-27T21:04:21.298Z,7.22
2022-12-27T21:06:51.232Z,5.68
2022-12-27T21:09:20.136Z,7.00
2022-12-27T21:11:55.434Z,5.38
2022-12-27T21:14:24.960Z,6.05
2022-12-27T21:16:54.850Z,5.95
2022-12-27T21:19:23.696Z,7.72
2022-12-27T21:21:53.192Z,5.75
2022-12-27T21:24:22.709Z,6.63
2022-12-27T21:26:56.229Z,5.78
2022-12-27T21:29:26.259Z,7.22
2022-12-27T21:31:54.701Z,5.38
2022-12-27T21:34:23.348Z,7.47
2022-12-27T21:36:55.154Z,5.88
2022-12-27T21:39:23.571Z,7.43
2022-12-27T21:41:51.832Z,6.13
2022-12-27T21:44:25.456Z,7.80
2022-12-27T21:46:53.806Z,6.03
2022-12-27T21:49:23.151Z,7.90
2022-12-27T21:51:52.148Z,6.25
2022-12-27T21:54:22.596Z,7.47
2022-12-27T21:56:51.069Z,5.85
2022-12-27T21:59:19.605Z,7.82
2022-12-27T22:01:50.818Z,6.38
2022-12-27T22:04:22.271Z,6.43
2022-12-27T22:06:51.049Z,6.47
2022-12-27T22:09:20.097Z,7.03
2022-12-27T22:11:49.104Z,6.25
2022-12-27T22:14:21.838Z,6.38
2022-12-27T22:16:53.595Z,5.45
2022-12-27T22:19:26.323Z,6.53
2022-12-27T22:21:58.282Z,5.10
2022-12-27T22:24:26.861Z,7.43
2022-12-27T22:26:55.325Z,5.47
2022-12-27T22:29:25.078Z,6.80
2022-12-27T22:31:53.428Z,5.05
2022-12-27T22:34:22.304Z,7.47
2022-12-27T22:36:52.359Z,5.28
2022-12-27T22:39:20.871Z,6.93
2022-12-27T22:41:49.121Z,5.13
2022-12-27T22:44:17.459Z,6.82
2022-12-27T22:47:15.652Z,5.85
2022-12-27T22:49:35.179Z,5.88
2022-12-27T22:52:03.759Z,5.38
2022-12-27T22:55:05.032Z,6.00
2022-12-27T22:57:20.122Z,6.53
2022-12-27T22:59:48.251Z,5.90
2022-12-27T23:02:16.745Z,6.35
2022-12-27T23:04:47.423Z,4.90
2022-12-27T23:07:20.197Z,6.87
2022-12-27T23:09:48.951Z,6.00
2022-12-27T23:12:17.017Z,6.68
2022-12-27T23:14:45.116Z,5.43
2022-12-27T23:17:13.989Z,6.35
2022-12-27T23:19:42.986Z,5.65
2022-12-27T23:22:11.032Z,6.18
2022-12-27T23:24:39.196Z,4.88
2022-12-27T23:27:07.182Z,5.30
2022-12-27T23:29:35.298Z,5.90
2022-12-27T23:32:03.559Z,5.28
2022-12-27T23:34:31.948Z,5.25
2022-12-27T23:37:01.471Z,5.75
2022-12-27T23:39:30.056Z,6.20
2022-12-27T23:41:58.141Z,5.93
2022-12-27T23:44:33.320Z,6.00
2022-12-27T23:47:07.616Z,5.57
2022-12-27T23:49:35.818Z,5.70
2022-12-27T23:52:04.577Z,5.80
2022-12-27T23:54:32.662Z,4.88
2022-12-27T23:57:20.363Z,4.88
2022-12-27T23:59:49.636Z,4.90
